sensor_id;sensor_type;location;lat;lon;timestamp;pressure;altitude;pressure_sealevel;temperature;humidity
73870;BME280;64924;42.140;24.762;2023-10-19T00:01:16;99875.63;;;14.22;59.46
73870;BME280;64924;42.140;24.762;2023-10-19T00:03:42;99877.13;;;14.18;60.03
73870;BME280;64924;42.140;24.762;2023-10-19T00:06:09;99869.34;;;14.15;59.86
73870;BME280;64924;42.140;24.762;2023-10-19T00:08:36;99871.44;;;14.13;59.89
73870;BME280;64924;42.140;24.762;2023-10-19T00:11:07;99863.91;;;14.08;59.61
73870;BME280;64924;42.140;24.762;2023-10-19T00:13:37;99851.72;;;14.11;59.71
73870;BME280;64924;42.140;24.762;2023-10-19T00:16:04;99860.13;;;14.09;59.78
73870;BME280;64924;42.140;24.762;2023-10-19T00:18:46;99839.53;;;14.07;59.70
73870;BME280;64924;42.140;24.762;2023-10-19T00:21:15;99831.56;;;13.98;59.98
73870;BME280;64924;42.140;24.762;2023-10-19T00:23:57;99847.06;;;14.11;59.67
73870;BME280;64924;42.140;24.762;2023-10-19T00:26:24;99803.84;;;13.88;59.69
73870;BME280;64924;42.140;24.762;2023-10-19T00:28:55;99830.50;;;14.06;59.55
73870;BME280;64924;42.140;24.762;2023-10-19T00:31:27;99833.66;;;14.10;59.43
73870;BME280;64924;42.140;24.762;2023-10-19T00:33:53;99831.97;;;14.02;59.83
73870;BME280;64924;42.140;24.762;2023-10-19T00:36:23;99825.25;;;13.98;59.85
73870;BME280;64924;42.140;24.762;2023-10-19T00:38:49;99826.31;;;13.97;59.83
73870;BME280;64924;42.140;24.762;2023-10-19T00:41:18;99818.53;;;14.00;59.68
73870;BME280;64924;42.140;24.762;2023-10-19T00:44:03;99821.50;;;13.92;59.76
73870;BME280;64924;42.140;24.762;2023-10-19T00:46:30;99776.19;;;13.65;60.17
73870;BME280;64924;42.140;24.762;2023-10-19T00:49:00;99809.72;;;13.85;60.20
73870;BME280;64924;42.140;24.762;2023-10-19T00:51:29;99814.78;;;13.88;60.13
73870;BME280;64924;42.140;24.762;2023-10-19T00:54:04;99805.72;;;13.94;59.98
73870;BME280;64924;42.140;24.762;2023-10-19T00:56:50;99810.16;;;13.89;59.96
73870;BME280;64924;42.140;24.762;2023-10-19T00:59:20;99815.81;;;14.00;60.11
73870;BME280;64924;42.140;24.762;2023-10-19T01:01:46;99794.81;;;13.81;60.29
73870;BME280;64924;42.140;24.762;2023-10-19T01:04:15;99797.56;;;13.81;60.21
73870;BME280;64924;42.140;24.762;2023-10-19T01:06:45;99801.13;;;13.88;60.38
73870;BME280;64924;42.140;24.762;2023-10-19T01:09:27;99804.69;;;13.82;60.56
73870;BME280;64924;42.140;24.762;2023-10-19T01:11:53;99771.34;;;13.67;60.33
73870;BME280;64924;42.140;24.762;2023-10-19T01:14:20;99772.81;;;13.69;60.38
73870;BME280;64924;42.140;24.762;2023-10-19T01:16:47;99789.63;;;13.73;60.32
73870;BME280;64924;42.140;24.762;2023-10-19T01:19:14;99792.56;;;13.58;60.91
73870;BME280;64924;42.140;24.762;2023-10-19T01:21:44;99796.78;;;13.54;60.79
73870;BME280;64924;42.140;24.762;2023-10-19T01:24:16;99789.03;;;13.31;61.93
73870;BME280;64924;42.140;24.762;2023-10-19T01:26:42;99752.69;;;13.04;61.83
73870;BME280;64924;42.140;24.762;2023-10-19T01:29:07;99784.41;;;13.25;61.97
73870;BME280;64924;42.140;24.762;2023-10-19T01:31:41;99778.75;;;13.20;62.22
73870;BME280;64924;42.140;24.762;2023-10-19T01:34:30;99775.59;;;13.23;61.69
73870;BME280;64924;42.140;24.762;2023-10-19T01:36:55;99785.00;;;13.41;61.61
73870;BME280;64924;42.140;24.762;2023-10-19T01:39:21;99785.00;;;13.47;61.22
73870;BME280;64924;42.140;24.762;2023-10-19T01:41:46;99792.56;;;13.52;60.91
73870;BME280;64924;42.140;24.762;2023-10-19T01:44:15;99784.38;;;13.52;61.02
73870;BME280;64924;42.140;24.762;2023-10-19T01:46:41;99787.31;;;13.57;60.79
73870;BME280;64924;42.140;24.762;2023-10-19T01:49:11;99781.22;;;13.55;61.01
73870;BME280;64924;42.140;24.762;2023-10-19T01:51:36;99784.59;;;13.57;60.50
73870;BME280;64924;42.140;24.762;2023-10-19T01:54:06;99748.06;;;13.38;60.67
73870;BME280;64924;42.140;24.762;2023-10-19T01:56:32;99793.00;;;13.62;60.37
73870;BME280;64924;42.140;24.762;2023-10-19T01:59:02;99774.50;;;13.57;60.76
73870;BME280;64924;42.140;24.762;2023-10-19T02:01:29;99793.41;;;13.59;60.83
73870;BME280;64924;42.140;24.762;2023-10-19T02:04:04;99796.97;;;13.66;60.55
73870;BME280;64924;42.140;24.762;2023-10-19T02:06:32;99789.00;;;13.58;60.68
73870;BME280;64924;42.140;24.762;2023-10-19T02:09:12;99793.41;;;13.59;60.64
73870;BME280;64924;42.140;24.762;2023-10-19T02:11:52;99798.88;;;13.65;60.47
73870;BME280;64924;42.140;24.762;2023-10-19T02:14:21;99789.41;;;13.55;60.50
73870;BME280;64924;42.140;24.762;2023-10-19T02:16:54;99752.47;;;13.39;60.65
73870;BME280;64924;42.140;24.762;2023-10-19T02:19:22;99794.88;;;13.55;60.76
73870;BME280;64924;42.140;24.762;2023-10-19T02:21:50;99761.97;;;13.30;60.75
73870;BME280;64924;42.140;24.762;2023-10-19T02:24:17;99795.72;;;13.42;60.76
73870;BME280;64924;42.140;24.762;2023-10-19T02:26:44;99783.56;;;13.31;60.78
73870;BME280;64924;42.140;24.762;2023-10-19T02:29:10;99796.34;;;13.44;60.70
73870;BME280;64924;42.140;24.762;2023-10-19T02:31:44;99802.22;;;13.54;60.54
73870;BME280;64924;42.140;24.762;2023-10-19T02:34:12;99803.50;;;13.52;60.62
73870;BME280;64924;42.140;24.762;2023-10-19T02:36:41;99798.44;;;13.49;60.64
73870;BME280;64924;42.140;24.762;2023-10-19T02:39:08;99802.22;;;13.54;60.60
73870;BME280;64924;42.140;24.762;2023-10-19T02:44:01;99796.56;;;13.43;60.81
73870;BME280;64924;42.140;24.762;2023-10-19T02:46:34;99803.69;;;13.50;60.88
73870;BME280;64924;42.140;24.762;2023-10-19T02:49:04;99814.19;;;13.47;61.44
73870;BME280;64924;42.140;24.762;2023-10-19T02:51:33;99811.88;;;13.44;61.01
73870;BME280;64924;42.140;24.762;2023-10-19T02:53:58;99812.31;;;13.41;61.27
73870;BME280;64924;42.140;24.762;2023-10-19T02:56:28;99805.16;;;13.46;60.77
73870;BME280;64924;42.140;24.762;2023-10-19T02:58:55;99799.72;;;13.53;60.79
73870;BME280;64924;42.140;24.762;2023-10-19T03:01:27;99795.94;;;13.54;60.50
73870;BME280;64924;42.140;24.762;2023-10-19T03:04:00;99802.66;;;13.58;60.54
73870;BME280;64924;42.140;24.762;2023-10-19T03:06:27;99804.53;;;13.64;60.64
73870;BME280;64924;42.140;24.762;2023-10-19T03:09:03;99808.94;;;13.71;60.16
73870;BME280;64924;42.140;24.762;2023-10-19T03:11:48;99798.44;;;13.62;60.26
73870;BME280;64924;42.140;24.762;2023-10-19T03:14:17;99818.16;;;13.77;59.73
73870;BME280;64924;42.140;24.762;2023-10-19T03:16:43;99819.88;;;13.65;60.20
73870;BME280;64924;42.140;24.762;2023-10-19T03:19:09;99787.13;;;13.52;60.38
73870;BME280;64924;42.140;24.762;2023-10-19T03:21:35;99817.56;;;13.68;60.13
73870;BME280;64924;42.140;24.762;2023-10-19T03:24:10;99821.13;;;13.69;59.97
73870;BME280;64924;42.140;24.762;2023-10-19T03:26:40;99816.72;;;13.61;60.01
73870;BME280;64924;42.140;24.762;2023-10-19T03:29:14;99816.50;;;13.56;59.89
73870;BME280;64924;42.140;24.762;2023-10-19T03:31:40;99774.97;;;13.28;60.19
73870;BME280;64924;42.140;24.762;2023-10-19T03:34:17;99816.28;;;13.64;60.03
73870;BME280;64924;42.140;24.762;2023-10-19T03:36:43;99790.09;;;13.30;59.91
73870;BME280;64924;42.140;24.762;2023-10-19T03:39:09;99811.25;;;13.55;60.02
73870;BME280;64924;42.140;24.762;2023-10-19T03:41:38;99800.97;;;13.57;60.04
73870;BME280;64924;42.140;24.762;2023-10-19T03:44:10;99817.78;;;13.60;59.89
73870;BME280;64924;42.140;24.762;2023-10-19T03:46:48;99774.09;;;13.41;60.15
73870;BME280;64924;42.140;24.762;2023-10-19T03:49:23;99769.47;;;13.41;60.22
73870;BME280;64924;42.140;24.762;2023-10-19T03:51:55;99803.06;;;13.68;59.69
73870;BME280;64924;42.140;24.762;2023-10-19T03:54:25;99802.66;;;13.71;59.79
73870;BME280;64924;42.140;24.762;2023-10-19T03:56:51;99795.72;;;13.68;59.46
73870;BME280;64924;42.140;24.762;2023-10-19T03:59:17;99775.13;;;13.59;59.24
73870;BME280;64924;42.140;24.762;2023-10-19T04:01:43;99791.09;;;13.69;59.40
73870;BME280;64924;42.140;24.762;2023-10-19T04:04:10;99792.56;;;13.65;59.53
73870;BME280;64924;42.140;24.762;2023-10-19T04:06:36;99788.78;;;13.59;59.46
73870;BME280;64924;42.140;24.762;2023-10-19T04:09:02;99788.38;;;13.56;59.59
73870;BME280;64924;42.140;24.762;2023-10-19T04:11:31;99788.78;;;13.53;59.31
73870;BME280;64924;42.140;24.762;2023-10-19T04:14:16;99790.06;;;13.57;59.72
73870;BME280;64924;42.140;24.762;2023-10-19T04:16:42;99794.25;;;13.59;59.54
73870;BME280;64924;42.140;24.762;2023-10-19T04:19:13;99796.34;;;13.64;59.39
73870;BME280;64924;42.140;24.762;2023-10-19T04:21:40;99805.16;;;13.66;59.45
73870;BME280;64924;42.140;24.762;2023-10-19T04:24:09;99796.97;;;13.59;59.51
73870;BME280;64924;42.140;24.762;2023-10-19T04:26:38;99799.50;;;13.61;59.38
73870;BME280;64924;42.140;24.762;2023-10-19T04:29:05;99794.66;;;13.63;59.52
73870;BME280;64924;42.140;24.762;2023-10-19T04:31:38;99791.31;;;13.61;59.61
73870;BME280;64924;42.140;24.762;2023-10-19T04:34:15;99801.59;;;13.59;59.47
73870;BME280;64924;42.140;24.762;2023-10-19T04:36:45;99796.13;;;13.59;59.49
73870;BME280;64924;42.140;24.762;2023-10-19T04:39:11;99798.88;;;13.59;59.68
73870;BME280;64924;42.140;24.762;2023-10-19T04:41:39;99795.72;;;13.62;59.57
73870;BME280;64924;42.140;24.762;2023-10-19T04:44:05;99796.34;;;13.57;59.38
73870;BME280;64924;42.140;24.762;2023-10-19T04:46:34;99790.91;;;13.44;59.83
73870;BME280;64924;42.140;24.762;2023-10-19T04:49:00;99787.78;;;13.34;60.39
73870;BME280;64924;42.140;24.762;2023-10-19T04:51:25;99799.75;;;13.33;60.19
73870;BME280;64924;42.140;24.762;2023-10-19T04:53:51;99796.59;;;13.29;60.39
73870;BME280;64924;42.140;24.762;2023-10-19T04:56:16;99802.44;;;13.39;59.85
73870;BME280;64924;42.140;24.762;2023-10-19T04:58:42;99799.72;;;13.39;59.73
73870;BME280;64924;42.140;24.762;2023-10-19T05:01:07;99800.97;;;13.44;59.54
73870;BME280;64924;42.140;24.762;2023-10-19T05:03:33;99767.00;;;13.20;59.24
73870;BME280;64924;42.140;24.762;2023-10-19T05:05:59;99807.47;;;13.49;58.83
73870;BME280;64924;42.140;24.762;2023-10-19T05:08:26;99797.63;;;13.42;58.55
73870;BME280;64924;42.140;24.762;2023-10-19T05:10:53;99807.06;;;13.46;58.58
73870;BME280;64924;42.140;24.762;2023-10-19T05:13:24;99803.69;;;13.57;58.28
73870;BME280;64924;42.140;24.762;2023-10-19T05:15:55;99794.63;;;13.76;57.82
73870;BME280;64924;42.140;24.762;2023-10-19T05:18:22;99809.94;;;13.97;57.11
73870;BME280;64924;42.140;24.762;2023-10-19T05:20:48;99809.63;;;14.18;56.69
73870;BME280;64924;42.140;24.762;2023-10-19T05:23:14;99813.78;;;14.47;55.74
73870;BME280;64924;42.140;24.762;2023-10-19T05:25:40;99803.94;;;14.78;54.96
73870;BME280;64924;42.140;24.762;2023-10-19T05:28:06;99772.78;;;14.79;53.69
73870;BME280;64924;42.140;24.762;2023-10-19T05:30:33;99811.88;;;15.17;53.41
73870;BME280;64924;42.140;24.762;2023-10-19T05:32:59;99813.59;;;15.36;52.64
73870;BME280;64924;42.140;24.762;2023-10-19T05:35:27;99803.78;;;15.54;52.00
73870;BME280;64924;42.140;24.762;2023-10-19T05:37:53;99801.34;;;15.89;50.65
73870;BME280;64924;42.140;24.762;2023-10-19T05:40:24;99800.22;;;16.15;50.04
73870;BME280;64924;42.140;24.762;2023-10-19T05:42:55;99795.81;;;16.32;49.65
73870;BME280;64924;42.140;24.762;2023-10-19T05:45:20;99805.53;;;16.64;48.95
73870;BME280;64924;42.140;24.762;2023-10-19T05:47:46;99810.50;;;16.86;48.64
73870;BME280;64924;42.140;24.762;2023-10-19T05:50:11;99803.88;;;17.05;48.06
73870;BME280;64924;42.140;24.762;2023-10-19T05:52:43;99790.19;;;17.28;47.06
73870;BME280;64924;42.140;24.762;2023-10-19T05:55:09;99791.53;;;17.37;46.52
73870;BME280;64924;42.140;24.762;2023-10-19T05:57:37;99807.91;;;17.56;46.40
73870;BME280;64924;42.140;24.762;2023-10-19T06:00:07;99801.25;;;17.75;46.08
73870;BME280;64924;42.140;24.762;2023-10-19T06:02:33;99773.75;;;17.87;45.10
73870;BME280;64924;42.140;24.762;2023-10-19T06:05:00;99806.53;;;18.40;44.36
73870;BME280;64924;42.140;24.762;2023-10-19T06:07:26;99802.84;;;18.75;43.52
73870;BME280;64924;42.140;24.762;2023-10-19T06:09:52;99796.13;;;19.27;42.46
73870;BME280;64924;42.140;24.762;2023-10-19T06:12:17;99804.06;;;19.74;40.90
73870;BME280;64924;42.140;24.762;2023-10-19T06:14:43;99801.66;;;20.16;40.05
73870;BME280;64924;42.140;24.762;2023-10-19T06:17:08;99794.81;;;20.62;38.85
73870;BME280;64924;42.140;24.762;2023-10-19T06:19:33;99795.78;;;21.00;38.15
73870;BME280;64924;42.140;24.762;2023-10-19T06:21:59;99798.50;;;21.22;37.92
73870;BME280;64924;42.140;24.762;2023-10-19T06:24:25;99799.00;;;21.46;37.21
73870;BME280;64924;42.140;24.762;2023-10-19T06:26:50;99754.53;;;21.52;36.80
73870;BME280;64924;42.140;24.762;2023-10-19T06:29:17;99806.56;;;21.97;36.19
73870;BME280;64924;42.140;24.762;2023-10-19T06:31:43;99796.03;;;21.99;35.97
73870;BME280;64924;42.140;24.762;2023-10-19T06:34:08;99794.22;;;21.73;36.27
73870;BME280;64924;42.140;24.762;2023-10-19T06:36:35;99799.53;;;21.80;36.23
73870;BME280;64924;42.140;24.762;2023-10-19T06:39:01;99804.31;;;21.89;36.04
73870;BME280;64924;42.140;24.762;2023-10-19T06:41:31;99799.00;;;21.83;35.85
73870;BME280;64924;42.140;24.762;2023-10-19T06:43:56;99792.09;;;21.48;36.44
73870;BME280;64924;42.140;24.762;2023-10-19T06:46:23;99798.28;;;21.28;36.69
73870;BME280;64924;42.140;24.762;2023-10-19T06:48:49;99796.81;;;21.48;36.50
73870;BME280;64924;42.140;24.762;2023-10-19T06:51:16;99808.59;;;21.70;36.54
73870;BME280;64924;42.140;24.762;2023-10-19T06:53:41;99798.91;;;22.10;35.43
73870;BME280;64924;42.140;24.762;2023-10-19T06:56:07;99764.28;;;22.02;35.15
73870;BME280;64924;42.140;24.762;2023-10-19T06:58:33;99793.50;;;22.35;35.00
73870;BME280;64924;42.140;24.762;2023-10-19T07:00:59;99783.22;;;22.25;34.93
73870;BME280;64924;42.140;24.762;2023-10-19T07:03:30;99798.66;;;22.11;35.31
73870;BME280;64924;42.140;24.762;2023-10-19T07:05:56;99791.25;;;22.22;35.21
73870;BME280;64924;42.140;24.762;2023-10-19T07:08:23;99816.28;;;22.47;34.77
73870;BME280;64924;42.140;24.762;2023-10-19T07:10:49;99804.25;;;22.84;34.36
73870;BME280;64924;42.140;24.762;2023-10-19T07:13:17;99797.13;;;23.23;33.50
73870;BME280;64924;42.140;24.762;2023-10-19T07:15:45;99784.34;;;23.12;33.09
73870;BME280;64924;42.140;24.762;2023-10-19T07:18:10;99788.91;;;22.56;34.09
73870;BME280;64924;42.140;24.762;2023-10-19T07:20:36;99790.22;;;21.96;35.36
73870;BME280;64924;42.140;24.762;2023-10-19T07:23:04;99803.88;;;21.71;36.01
73870;BME280;64924;42.140;24.762;2023-10-19T07:25:36;99760.94;;;21.26;36.52
73870;BME280;64924;42.140;24.762;2023-10-19T07:28:13;99795.13;;;21.47;36.80
73870;BME280;64924;42.140;24.762;2023-10-19T07:30:40;99787.31;;;21.39;36.56
73870;BME280;64924;42.140;24.762;2023-10-19T07:33:07;99790.19;;;21.54;36.71
73870;BME280;64924;42.140;24.762;2023-10-19T07:35:35;99782.75;;;21.96;36.10
73870;BME280;64924;42.140;24.762;2023-10-19T07:38:03;99736.94;;;22.11;35.35
73870;BME280;64924;42.140;24.762;2023-10-19T07:40:29;99783.94;;;22.68;34.76
73870;BME280;64924;42.140;24.762;2023-10-19T07:42:55;99785.44;;;22.96;34.51
73870;BME280;64924;42.140;24.762;2023-10-19T07:45:21;99772.13;;;23.03;34.07
73870;BME280;64924;42.140;24.762;2023-10-19T07:47:47;99779.34;;;23.09;33.73
73870;BME280;64924;42.140;24.762;2023-10-19T07:50:13;99772.13;;;22.93;34.07
73870;BME280;64924;42.140;24.762;2023-10-19T07:52:50;99782.94;;;22.94;34.29
73870;BME280;64924;42.140;24.762;2023-10-19T07:55:18;99761.59;;;23.05;33.96
73870;BME280;64924;42.140;24.762;2023-10-19T07:57:44;99768.00;;;23.16;33.48
73870;BME280;64924;42.140;24.762;2023-10-19T08:00:11;99772.97;;;23.09;33.58
73870;BME280;64924;42.140;24.762;2023-10-19T08:02:39;99765.47;;;23.04;33.92
73870;BME280;64924;42.140;24.762;2023-10-19T08:05:09;99766.06;;;23.21;33.61
73870;BME280;64924;42.140;24.762;2023-10-19T08:07:37;99767.16;;;23.41;33.31
73870;BME280;64924;42.140;24.762;2023-10-19T08:10:05;99774.13;;;23.74;32.90
73870;BME280;64924;42.140;24.762;2023-10-19T08:12:32;99771.56;;;23.92;32.59
73870;BME280;64924;42.140;24.762;2023-10-19T08:14:58;99774.91;;;23.99;32.38
73870;BME280;64924;42.140;24.762;2023-10-19T08:17:24;99766.91;;;23.73;32.88
73870;BME280;64924;42.140;24.762;2023-10-19T08:19:50;99753.03;;;23.32;33.41
73870;BME280;64924;42.140;24.762;2023-10-19T08:22:16;99756.06;;;23.05;34.10
73870;BME280;64924;42.140;24.762;2023-10-19T08:24:41;99751.06;;;22.97;34.07
73870;BME280;64924;42.140;24.762;2023-10-19T08:27:11;99754.13;;;23.11;34.15
73870;BME280;64924;42.140;24.762;2023-10-19T08:29:38;99752.75;;;23.33;33.85
73870;BME280;64924;42.140;24.762;2023-10-19T08:32:04;99748.31;;;23.38;33.67
73870;BME280;64924;42.140;24.762;2023-10-19T08:34:34;99758.56;;;23.47;34.22
73870;BME280;64924;42.140;24.762;2023-10-19T08:37:01;99751.66;;;23.29;34.27
73870;BME280;64924;42.140;24.762;2023-10-19T08:39:27;99750.81;;;23.14;34.56
73870;BME280;64924;42.140;24.762;2023-10-19T08:41:53;99751.63;;;23.09;34.90
73870;BME280;64924;42.140;24.762;2023-10-19T08:44:20;99752.47;;;23.10;35.03
73870;BME280;64924;42.140;24.762;2023-10-19T08:46:46;99739.44;;;23.00;34.96
73870;BME280;64924;42.140;24.762;2023-10-19T08:49:17;99752.91;;;22.71;35.38
73870;BME280;64924;42.140;24.762;2023-10-19T08:51:46;99742.72;;;22.82;35.63
73870;BME280;64924;42.140;24.762;2023-10-19T08:54:12;99749.41;;;22.91;35.24
73870;BME280;64924;42.140;24.762;2023-10-19T08:56:39;99746.63;;;22.91;34.91
73870;BME280;64924;42.140;24.762;2023-10-19T08:59:09;99752.66;;;22.78;35.17
73870;BME280;64924;42.140;24.762;2023-10-19T09:01:36;99752.06;;;22.60;36.01
73870;BME280;64924;42.140;24.762;2023-10-19T09:04:02;99741.53;;;22.67;35.70
73870;BME280;64924;42.140;24.762;2023-10-19T09:06:28;99732.38;;;22.52;36.02
73870;BME280;64924;42.140;24.762;2023-10-19T09:08:57;99714.97;;;22.56;36.12
73870;BME280;64924;42.140;24.762;2023-10-19T09:11:25;99715.03;;;22.82;36.11
73870;BME280;64924;42.140;24.762;2023-10-19T09:13:51;99720.31;;;22.98;35.83
73870;BME280;64924;42.140;24.762;2023-10-19T09:16:19;99720.84;;;23.06;35.68
73870;BME280;64924;42.140;24.762;2023-10-19T09:18:46;99698.97;;;22.89;35.46
73870;BME280;64924;42.140;24.762;2023-10-19T09:21:19;99692.59;;;22.93;35.23
73870;BME280;64924;42.140;24.762;2023-10-19T09:23:52;99703.31;;;22.69;35.58
73870;BME280;64924;42.140;24.762;2023-10-19T09:26:18;99709.88;;;22.33;36.35
73870;BME280;64924;42.140;24.762;2023-10-19T09:28:53;99699.81;;;22.07;36.58
73870;BME280;64924;42.140;24.762;2023-10-19T09:31:19;99690.97;;;21.57;37.29
73870;BME280;64924;42.140;24.762;2023-10-19T09:33:47;99660.63;;;21.25;37.57
73870;BME280;64924;42.140;24.762;2023-10-19T09:36:14;99693.97;;;21.19;38.14
73870;BME280;64924;42.140;24.762;2023-10-19T09:38:47;99668.13;;;20.98;38.52
73870;BME280;64924;42.140;24.762;2023-10-19T09:41:23;99678.84;;;20.62;39.26
73870;BME280;64924;42.140;24.762;2023-10-19T09:44:02;99675.09;;;20.47;39.39
73870;BME280;64924;42.140;24.762;2023-10-19T09:46:33;99677.41;;;20.33;40.15
73870;BME280;64924;42.140;24.762;2023-10-19T09:49:02;99668.25;;;20.06;40.63
73870;BME280;64924;42.140;24.762;2023-10-19T09:51:28;99680.13;;;19.62;41.69
73870;BME280;64924;42.140;24.762;2023-10-19T09:56:41;99674.84;;;19.22;43.27
73870;BME280;64924;42.140;24.762;2023-10-19T09:59:37;99669.16;;;19.29;42.44
73870;BME280;64924;42.140;24.762;2023-10-19T10:02:06;99671.97;;;19.34;42.24
73870;BME280;64924;42.140;24.762;2023-10-19T10:04:32;99626.34;;;19.21;42.60
73870;BME280;64924;42.140;24.762;2023-10-19T10:06:59;99673.16;;;19.21;43.50
73870;BME280;64924;42.140;24.762;2023-10-19T10:09:28;99654.63;;;19.17;43.24
73870;BME280;64924;42.140;24.762;2023-10-19T10:11:55;99666.41;;;19.12;43.07
73870;BME280;64924;42.140;24.762;2023-10-19T10:14:25;99656.56;;;19.16;43.40
73870;BME280;64924;42.140;24.762;2023-10-19T10:17:03;99645.50;;;19.33;42.96
73870;BME280;64924;42.140;24.762;2023-10-19T10:19:30;99653.38;;;19.24;42.93
73870;BME280;64924;42.140;24.762;2023-10-19T10:22:10;99648.03;;;19.18;43.15
73870;BME280;64924;42.140;24.762;2023-10-19T10:24:46;99664.81;;;19.16;42.82
73870;BME280;64924;42.140;24.762;2023-10-19T10:27:16;99657.13;;;19.18;43.11
73870;BME280;64924;42.140;24.762;2023-10-19T10:30:00;99660.06;;;19.50;42.79
73870;BME280;64924;42.140;24.762;2023-10-19T10:32:52;99619.09;;;19.37;42.28
73870;BME280;64924;42.140;24.762;2023-10-19T10:38:03;99623.94;;;20.12;40.91
73870;BME280;64924;42.140;24.762;2023-10-19T10:40:31;99633.34;;;20.16;40.75
73870;BME280;64924;42.140;24.762;2023-10-19T10:43:06;99599.53;;;20.26;40.33
73870;BME280;64924;42.140;24.762;2023-10-19T10:45:32;99626.44;;;20.67;40.13
73870;BME280;64924;42.140;24.762;2023-10-19T10:47:58;99585.38;;;20.76;39.25
73870;BME280;64924;42.140;24.762;2023-10-19T10:50:26;99620.25;;;21.24;38.66
73870;BME280;64924;42.140;24.762;2023-10-19T10:52:53;99578.06;;;20.97;38.32
73870;BME280;64924;42.140;24.762;2023-10-19T10:55:23;99612.47;;;20.79;38.97
73870;BME280;64924;42.140;24.762;2023-10-19T10:57:50;99599.31;;;20.59;39.27
73870;BME280;64924;42.140;24.762;2023-10-19T11:00:16;99601.81;;;20.61;39.15
73870;BME280;64924;42.140;24.762;2023-10-19T11:02:44;99575.44;;;20.43;39.29
73870;BME280;64924;42.140;24.762;2023-10-19T11:05:15;99591.03;;;20.59;39.50
73870;BME280;64924;42.140;24.762;2023-10-19T11:10:33;99582.72;;;20.54;39.71
73870;BME280;64924;42.140;24.762;2023-10-19T11:13:06;99578.69;;;20.67;39.86
73870;BME280;64924;42.140;24.762;2023-10-19T11:15:33;99544.09;;;20.59;39.73
73870;BME280;64924;42.140;24.762;2023-10-19T11:17:58;99554.50;;;20.84;39.34
73870;BME280;64924;42.140;24.762;2023-10-19T11:20:26;99569.97;;;21.22;38.91
73870;BME280;64924;42.140;24.762;2023-10-19T11:22:53;99565.69;;;21.05;39.17
73870;BME280;64924;42.140;24.762;2023-10-19T11:25:25;99561.75;;;20.95;39.58
73870;BME280;64924;42.140;24.762;2023-10-19T11:27:55;99544.06;;;20.91;39.60
73870;BME280;64924;42.140;24.762;2023-10-19T11:30:28;99540.84;;;21.05;39.50
73870;BME280;64924;42.140;24.762;2023-10-19T11:32:54;99538.91;;;21.05;39.40
73870;BME280;64924;42.140;24.762;2023-10-19T11:35:24;99543.19;;;21.28;38.68
73870;BME280;64924;42.140;24.762;2023-10-19T11:37:52;99526.25;;;21.14;38.93
73870;BME280;64924;42.140;24.762;2023-10-19T11:40:19;99533.22;;;21.22;39.06
73870;BME280;64924;42.140;24.762;2023-10-19T11:42:45;99519.72;;;21.30;38.51
73870;BME280;64924;42.140;24.762;2023-10-19T11:45:10;99525.78;;;21.27;39.05
73870;BME280;64924;42.140;24.762;2023-10-19T11:47:37;99499.38;;;21.05;39.60
73870;BME280;64924;42.140;24.762;2023-10-19T11:50:03;99506.97;;;20.77;40.42
73870;BME280;64924;42.140;24.762;2023-10-19T11:52:28;99509.41;;;20.68;40.84
73870;BME280;64924;42.140;24.762;2023-10-19T11:54:55;99512.22;;;20.79;40.71
73870;BME280;64924;42.140;24.762;2023-10-19T11:57:21;99499.97;;;20.64;40.21
73870;BME280;64924;42.140;24.762;2023-10-19T11:59:47;99496.59;;;20.57;39.93
73870;BME280;64924;42.140;24.762;2023-10-19T12:02:18;99501.38;;;20.35;40.38
73870;BME280;64924;42.140;24.762;2023-10-19T12:04:44;99468.41;;;20.18;40.65
73870;BME280;64924;42.140;24.762;2023-10-19T12:07:11;99504.16;;;20.35;41.15
73870;BME280;64924;42.140;24.762;2023-10-19T12:09:36;99504.41;;;20.33;41.04
73870;BME280;64924;42.140;24.762;2023-10-19T12:12:02;99498.06;;;20.33;41.15
73870;BME280;64924;42.140;24.762;2023-10-19T12:14:31;99494.19;;;20.34;40.92
73870;BME280;64924;42.140;24.762;2023-10-19T12:17:00;99484.91;;;20.13;41.29
73870;BME280;64924;42.140;24.762;2023-10-19T12:19:29;99501.66;;;20.01;41.72
73870;BME280;64924;42.140;24.762;2023-10-19T12:21:55;99488.69;;;20.02;41.42
73870;BME280;64924;42.140;24.762;2023-10-19T12:24:20;99487.28;;;19.99;41.21
73870;BME280;64924;42.140;24.762;2023-10-19T12:26:46;99484.91;;;20.13;41.28
73870;BME280;64924;42.140;24.762;2023-10-19T12:29:12;99447.53;;;19.95;41.22
73870;BME280;64924;42.140;24.762;2023-10-19T12:31:40;99476.78;;;19.96;41.36
73870;BME280;64924;42.140;24.762;2023-10-19T12:34:08;99377.84;;;19.46;41.66
73870;BME280;64924;42.140;24.762;2023-10-19T12:36:37;99463.47;;;19.88;41.50
73870;BME280;64924;42.140;24.762;2023-10-19T12:39:03;99459.56;;;19.84;41.79
73870;BME280;64924;42.140;24.762;2023-10-19T12:41:32;99454.75;;;19.75;42.01
73870;BME280;64924;42.140;24.762;2023-10-19T12:43:58;99459.59;;;19.89;41.79
73870;BME280;64924;42.140;24.762;2023-10-19T12:46:26;99462.16;;;19.96;41.72
73870;BME280;64924;42.140;24.762;2023-10-19T12:48:58;99449.84;;;20.09;41.28
73870;BME280;64924;42.140;24.762;2023-10-19T12:51:24;99442.38;;;20.09;41.13
73870;BME280;64924;42.140;24.762;2023-10-19T12:53:53;99426.69;;;20.10;41.43
73870;BME280;64924;42.140;24.762;2023-10-19T12:56:19;99433.41;;;20.24;40.94
73870;BME280;64924;42.140;24.762;2023-10-19T12:58:45;99420.06;;;20.11;40.60
73870;BME280;64924;42.140;24.762;2023-10-19T13:01:10;99384.53;;;19.82;40.90
73870;BME280;64924;42.140;24.762;2023-10-19T13:03:45;99413.44;;;20.12;40.90
73870;BME280;64924;42.140;24.762;2023-10-19T13:06:15;99421.78;;;20.17;40.33
73870;BME280;64924;42.140;24.762;2023-10-19T13:08:40;99410.44;;;20.13;40.69